Terminal Aerodrome Forecast
Issued by NWS

Home | Current Version | Previous Version | Text Only | Print | Product List | Glossary On
Versions: 1 2 3 4 5 6 7 8 9 10 11 12 13 14 15 16 17 18 19 20 21 22 23 24 25 26
000
FTUS41 KOKX 280547
TAFSWF
TAF
KSWF 280547Z 2806/2912 VRB03KT P6SM BKN070
     FM280800 VRB03KT P6SM SCT070
     FM281500 15004KT P6SM BKN040
     FM281900 16008KT P6SM BKN045
     FM290300 13004KT P6SM BKN045
     FM290500 12004KT P6SM VCSH OVC030
     FM290700 10006KT 6SM -RA OVC015
     FM291100 10007KT 3SM SHRA OVC009
      AMD NOT SKED=

USA.gov is the U.S. government's official web portal to all federal, state and local government web resources and services.